Time;durP1;ratioP1;P1;durP2;ratioP2;P2;SDS_P1;SDS_P2;PMS_P1;PMS_P2;Temp;Humidity;BMP_temperature;BMP_pressure;BME280_temperature;BME280_humidity;BME280_pressure;Samples;Min_cycle;Max_cycle;Signal;HPM_P1;HPM_P2
2023/02/10 00:01:15;;;;;;;1999.90;999.90;;;;;;;-4.97;100.00;99810.19;5010837;28;20026;-75
2023/02/10 00:03:41;;;;;;;1999.90;999.90;;;;;;;-5.07;100.00;99812.06;5010657;28;20036;-75
2023/02/10 00:06:08;;;;;;;1999.90;999.90;;;;;;;-4.98;100.00;99805.03;5010784;28;20030;-75
2023/02/10 00:08:34;;;;;;;1999.90;999.90;;;;;;;-4.94;100.00;99798.38;5010355;28;20084;-75
2023/02/10 00:11:02;;;;;;;1999.90;999.90;;;;;;;-4.91;100.00;99800.75;5010574;28;20380;-75
2023/02/10 00:13:28;;;;;;;1999.90;999.90;;;;;;;-4.80;100.00;99799.69;5010328;28;20037;-75
2023/02/10 00:15:57;;;;;;;1999.90;999.90;;;;;;;-4.84;100.00;99790.31;5011828;28;20040;-75
2023/02/10 00:18:22;;;;;;;1999.90;999.90;;;;;;;-5.04;100.00;99779.78;5016777;28;20504;-75
2023/02/10 00:20:48;;;;;;;1999.90;999.90;;;;;;;-4.93;100.00;99792.06;5030003;28;20021;-75
2023/02/10 00:23:13;;;;;;;1999.90;999.90;;;;;;;-4.87;100.00;99791.44;5030144;28;20497;-75
2023/02/10 00:25:39;;;;;;;1999.90;999.90;;;;;;;-4.93;100.00;99787.56;5012060;28;20128;-76
2023/02/10 00:28:04;;;;;;;1999.90;999.90;;;;;;;-5.05;100.00;99770.13;5029965;28;20030;-75
2023/02/10 00:30:30;;;;;;;1999.90;999.90;;;;;;;-5.03;100.00;99780.63;5029965;28;20052;-74
2023/02/10 00:32:56;;;;;;;1999.90;999.90;;;;;;;-5.03;100.00;99784.13;5030047;28;20029;-75
2023/02/10 00:35:21;;;;;;;1999.90;999.90;;;;;;;-5.06;100.00;99781.75;5015117;28;20040;-75
2023/02/10 00:37:47;;;;;;;1999.90;999.90;;;;;;;-4.98;100.00;99789.03;5009650;28;20057;-75
2023/02/10 00:40:12;;;;;;;1999.90;999.90;;;;;;;-4.99;100.00;99790.00;5010309;28;20032;-75
2023/02/10 00:42:38;;;;;;;1999.90;999.90;;;;;;;-5.12;100.00;99784.19;5010128;28;20037;-75
2023/02/10 00:45:04;;;;;;;1999.90;999.90;;;;;;;-5.11;100.00;99799.22;5009897;28;20061;-75
2023/02/10 00:47:29;;;;;;;1999.90;999.90;;;;;;;-5.21;100.00;99788.59;5019821;28;20129;-74
2023/02/10 00:49:54;;;;;;;1999.90;999.90;;;;;;;-5.27;100.00;99777.69;5010936;28;20489;-75
2023/02/10 00:52:20;;;;;;;1999.90;999.90;;;;;;;-5.39;100.00;99786.88;5009884;28;20036;-76
2023/02/10 00:54:45;;;;;;;1999.90;999.90;;;;;;;-5.43;100.00;99781.84;5010112;28;20049;-76
2023/02/10 00:57:10;;;;;;;1999.90;999.90;;;;;;;-5.48;100.00;99783.25;5010815;28;20101;-76
2023/02/10 00:59:36;;;;;;;1999.90;999.90;;;;;;;-5.33;100.00;99791.63;5010655;28;20030;-76
2023/02/10 01:02:01;;;;;;;1999.90;999.90;;;;;;;-5.40;100.00;99804.72;5013948;28;20022;-75
2023/02/10 01:04:27;;;;;;;1999.90;999.90;;;;;;;-5.37;100.00;99793.75;5013634;28;20537;-75
2023/02/10 01:06:52;;;;;;;1999.90;999.90;;;;;;;-5.52;100.00;99796.06;5014193;28;20030;-75
2023/02/10 01:09:17;;;;;;;1999.90;999.90;;;;;;;-5.50;100.00;99799.44;5013753;28;20121;-75
2023/02/10 01:11:43;;;;;;;1999.90;999.90;;;;;;;-5.36;100.00;99799.91;5013777;28;20037;-76
2023/02/10 01:14:09;;;;;;;1999.90;999.90;;;;;;;-5.46;100.00;99790.16;5013717;28;20390;-76
2023/02/10 01:16:34;;;;;;;1999.90;999.90;;;;;;;-5.44;100.00;99798.81;5015697;28;20037;-75
2023/02/10 01:19:00;;;;;;;1999.90;999.90;;;;;;;-5.45;100.00;99794.47;5022296;28;20033;-75
2023/02/10 01:21:26;;;;;;;1999.90;999.90;;;;;;;-5.48;100.00;99786.78;5014246;28;20033;-75
2023/02/10 01:23:51;;;;;;;1999.90;999.90;;;;;;;-5.44;100.00;99788.16;5014567;28;20758;-75
2023/02/10 01:26:17;;;;;;;1999.90;999.90;;;;;;;-5.36;100.00;99784.78;5014152;28;20045;-76
2023/02/10 01:28:43;;;;;;;1999.90;999.90;;;;;;;-5.47;100.00;99779.63;5013964;28;20363;-75
2023/02/10 01:31:12;;;;;;;1999.90;999.90;;;;;;;-5.28;100.00;99776.00;5013547;28;20026;-75
2023/02/10 01:33:37;;;;;;;1999.90;999.90;;;;;;;-5.47;100.00;99782.28;5013279;28;20034;-74
2023/02/10 01:36:08;;;;;;;1999.90;999.90;;;;;;;-5.54;100.00;99776.72;5013647;28;20029;-74
2023/02/10 01:38:33;;;;;;;1999.90;999.90;;;;;;;-5.71;100.00;99764.19;5013019;28;20042;-74
2023/02/10 01:40:59;;;;;;;1999.90;999.90;;;;;;;-5.77;100.00;99759.47;5013182;28;20021;-75
2023/02/10 01:43:24;;;;;;;1999.90;999.90;;;;;;;-5.71;100.00;99771.34;5014064;28;20033;-75
2023/02/10 01:45:50;;;;;;;1999.90;999.90;;;;;;;-5.81;100.00;99768.72;4980373;28;20104;-74
2023/02/10 01:48:15;;;;;;;1999.90;999.90;;;;;;;-5.91;100.00;99773.28;5017580;28;20053;-75
2023/02/10 01:50:47;;;;;;;1999.90;999.90;;;;;;;-5.74;100.00;99775.16;5013006;28;20099;-74
2023/02/10 01:53:14;;;;;;;1999.90;999.90;;;;;;;-5.78;100.00;99779.06;5012955;28;20030;-75
2023/02/10 01:55:42;;;;;;;1999.90;999.90;;;;;;;-5.78;100.00;99767.59;5012969;28;20026;-75
2023/02/10 01:58:11;;;;;;;1999.90;999.90;;;;;;;-5.79;100.00;99764.06;5012771;28;20092;-75
2023/02/10 02:00:36;;;;;;;1999.90;999.90;;;;;;;-5.86;100.00;99764.84;5012984;28;20030;-75
2023/02/10 02:03:04;;;;;;;1999.90;999.90;;;;;;;-5.97;100.00;99769.38;5012972;28;20106;-75
2023/02/10 02:05:39;;;;;;;1999.90;999.90;;;;;;;-5.89;100.00;99774.00;5012723;28;20387;-74
2023/02/10 02:08:17;;;;;;;1999.90;999.90;;;;;;;-5.83;100.00;99760.03;5012964;28;20084;-74
2023/02/10 02:10:58;;;;;;;1999.90;999.90;;;;;;;-5.86;100.00;99760.38;5012366;28;20057;-75
2023/02/10 02:13:35;;;;;;;1999.90;999.90;;;;;;;-5.84;100.00;99758.34;5012552;28;20018;-75
2023/02/10 02:16:06;;;;;;;1999.90;999.90;;;;;;;-5.77;100.00;99753.28;5014757;28;20030;-75
2023/02/10 02:18:46;;;;;;;1999.90;999.90;;;;;;;-5.90;100.00;99755.47;5017255;28;20036;-74
2023/02/10 02:21:27;;;;;;;1999.90;999.90;;;;;;;-5.78;100.00;99763.09;5012755;28;20038;-77
2023/02/10 02:24:39;;;;;;;1999.90;999.90;;;;;;;-5.90;100.00;99764.31;5012572;28;20624;-74
2023/02/10 02:27:16;;;;;;;1999.90;999.90;;;;;;;-5.94;100.00;99756.75;4932436;29;20408;-75
2023/02/10 02:30:06;;;;;;;1999.90;999.90;;;;;;;-5.80;100.00;99756.25;5008339;28;20065;-75
2023/02/10 02:32:43;;;;;;;1999.90;999.90;;;;;;;-6.01;100.00;99753.81;5011979;28;20079;-75
2023/02/10 02:35:15;;;;;;;1999.90;999.90;;;;;;;-5.91;100.00;99762.63;5012221;28;20022;-76
2023/02/10 02:37:43;;;;;;;1999.90;999.90;;;;;;;-5.88;100.00;99761.47;5012491;28;20045;-75
2023/02/10 02:40:09;;;;;;;1999.90;999.90;;;;;;;-5.92;100.00;99747.66;5012014;28;20071;-75
2023/02/10 02:42:35;;;;;;;1999.90;999.90;;;;;;;-6.11;100.00;99751.19;5012157;28;20064;-76
2023/02/10 02:45:25;;;;;;;1999.90;999.90;;;;;;;-5.97;100.00;99763.22;5011894;28;20061;-76
2023/02/10 02:47:56;;;;;;;1999.90;999.90;;;;;;;-5.99;100.00;99755.38;5005105;28;20467;-76
2023/02/10 02:50:56;;;;;;;1999.90;999.90;;;;;;;-6.16;100.00;99741.97;5011831;28;20033;-75
2023/02/10 02:54:06;;;;;;;1999.90;999.90;;;;;;;-6.10;100.00;99758.19;4994115;28;20037;-75
2023/02/10 02:56:53;;;;;;;1999.90;999.90;;;;;;;-6.09;100.00;99753.72;4994447;28;20092;-75
2023/02/10 02:59:25;;;;;;;1999.90;999.90;;;;;;;-6.13;100.00;99760.31;5011601;28;20030;-75
2023/02/10 03:01:57;;;;;;;1999.90;999.90;;;;;;;-6.16;100.00;99749.94;4994034;28;20030;-75
2023/02/10 03:04:26;;;;;;;1999.90;999.90;;;;;;;-6.19;100.00;99752.91;4993887;28;20462;-75
2023/02/10 03:06:51;;;;;;;1999.90;999.90;;;;;;;-6.21;100.00;99765.53;5012014;28;20034;-76
2023/02/10 03:09:17;;;;;;;1999.90;999.90;;;;;;;-6.20;100.00;99767.22;5011431;28;20387;-75
2023/02/10 03:11:42;;;;;;;1999.90;999.90;;;;;;;-6.30;100.00;99769.91;5011521;28;20026;-75
2023/02/10 03:14:08;;;;;;;1999.90;999.90;;;;;;;-6.35;100.00;99773.97;5011284;28;20113;-75
2023/02/10 03:16:33;;;;;;;1999.90;999.90;;;;;;;-6.42;100.00;99746.25;5016078;28;20497;-76
2023/02/10 03:18:58;;;;;;;1999.90;999.90;;;;;;;-6.32;100.00;99776.31;5013709;28;20096;-75
2023/02/10 03:21:25;;;;;;;1999.90;999.90;;;;;;;-6.31;100.00;99754.06;5031012;28;20529;-75
2023/02/10 03:23:50;;;;;;;1999.90;999.90;;;;;;;-6.41;100.00;99761.22;5030290;28;20547;-75
2023/02/10 03:26:16;;;;;;;1999.90;999.90;;;;;;;-6.32;100.00;99768.34;5025419;28;20042;-75
2023/02/10 03:28:41;;;;;;;1999.90;999.90;;;;;;;-6.31;100.00;99775.34;5019663;28;20382;-75
2023/02/10 03:31:07;;;;;;;1999.90;999.90;;;;;;;-6.37;100.00;99765.28;5011182;28;20112;-75
2023/02/10 03:33:33;;;;;;;1999.90;999.90;;;;;;;-6.45;100.00;99767.84;5011070;28;20470;-75
2023/02/10 03:35:59;;;;;;;1999.90;999.90;;;;;;;-6.44;100.00;99765.00;5011229;28;20021;-74
2023/02/10 03:38:27;;;;;;;1999.90;999.90;;;;;;;-6.38;100.00;99768.91;5011425;28;20046;-75
2023/02/10 03:40:53;;;;;;;1999.90;999.90;;;;;;;-6.41;100.00;99774.53;5010934;28;20038;-75
2023/02/10 03:43:20;;;;;;;1999.90;999.90;;;;;;;-6.54;100.00;99774.81;5010797;28;20045;-76
2023/02/10 03:45:45;;;;;;;1999.90;999.90;;;;;;;-6.48;100.00;99778.78;4993171;28;20057;-75
2023/02/10 03:48:11;;;;;;;1999.90;999.90;;;;;;;-6.61;100.00;99787.03;5017751;28;20103;-76
2023/02/10 03:50:37;;;;;;;1999.90;999.90;;;;;;;-6.62;100.00;99780.88;5030737;28;20022;-75
2023/02/10 03:53:03;;;;;;;1999.90;999.90;;;;;;;-6.53;100.00;99780.03;5030574;28;20099;-75
2023/02/10 03:55:29;;;;;;;1999.90;999.90;;;;;;;-6.46;100.00;99787.44;5030516;28;20367;-75
2023/02/10 03:57:54;;;;;;;1999.90;999.90;;;;;;;-6.47;100.00;99794.56;5030276;28;20476;-75
2023/02/10 04:00:20;;;;;;;1999.90;999.90;;;;;;;-6.57;100.00;99791.91;5030465;28;20048;-75
2023/02/10 04:02:45;;;;;;;1999.90;999.90;;;;;;;-6.47;100.00;99802.56;5030305;28;20560;-75
2023/02/10 04:05:11;;;;;;;1999.90;999.90;;;;;;;-6.53;100.00;99798.66;5012454;28;20099;-76
2023/02/10 04:07:36;;;;;;;1999.90;999.90;;;;;;;-6.68;100.00;99783.25;5030667;28;20040;-75
2023/02/10 04:10:03;;;;;;;1999.90;999.90;;;;;;;-6.78;100.00;99785.91;5030278;28;20494;-76
2023/02/10 04:12:28;;;;;;;1999.90;999.90;;;;;;;-6.76;100.00;99785.75;5029843;28;20629;-75
2023/02/10 04:14:54;;;;;;;1999.90;999.90;;;;;;;-6.84;100.00;99789.13;5030048;28;20052;-75
2023/02/10 04:17:19;;;;;;;1999.90;999.90;;;;;;;-6.78;100.00;99780.59;5020339;28;20029;-75
2023/02/10 04:19:45;;;;;;;1999.90;999.90;;;;;;;-6.74;100.00;99789.16;5027437;28;20049;-75
2023/02/10 04:22:10;;;;;;;1999.90;999.90;;;;;;;-6.64;100.00;99801.44;5023303;28;20038;-75
2023/02/10 04:24:36;;;;;;;1999.90;999.90;;;;;;;-6.69;100.00;99795.72;5016870;28;20064;-75
2023/02/10 04:27:01;;;;;;;1999.90;999.90;;;;;;;-6.76;100.00;99791.09;5010141;28;20033;-75
2023/02/10 04:29:26;;;;;;;1999.90;999.90;;;;;;;-6.83;100.00;99796.16;5010007;28;20029;-75
2023/02/10 04:31:52;;;;;;;1999.90;999.90;;;;;;;-6.73;100.00;99804.09;5010138;28;20022;-76
2023/02/10 04:34:17;;;;;;;1999.90;999.90;;;;;;;-6.79;100.00;99792.22;5010030;28;20076;-74
2023/02/10 04:36:43;;;;;;;1999.90;999.90;;;;;;;-6.87;100.00;99789.41;5010152;28;20037;-75
2023/02/10 04:39:08;;;;;;;1999.90;999.90;;;;;;;-6.78;100.00;99787.72;5010451;28;20128;-75
2023/02/10 04:41:33;;;;;;;1999.90;999.90;;;;;;;-6.79;100.00;99781.56;5010028;28;20045;-76
2023/02/10 04:43:59;;;;;;;1999.90;999.90;;;;;;;-6.78;100.00;99783.25;4992093;28;20125;-76
2023/02/10 04:46:24;;;;;;;1999.90;999.90;;;;;;;-6.74;100.00;99784.66;5011668;28;20068;-75
2023/02/10 04:48:49;;;;;;;1999.90;999.90;;;;;;;-6.83;100.00;99793.50;5018357;28;20022;-75
2023/02/10 04:51:15;;;;;;;1999.90;999.90;;;;;;;-6.84;100.00;99781.16;5009796;28;20061;-74
2023/02/10 04:53:43;;;;;;;1999.90;999.90;;;;;;;-6.77;100.00;99784.09;5009922;28;20479;-75
2023/02/10 04:56:09;;;;;;;1999.90;999.90;;;;;;;-6.76;100.00;99797.25;5009717;28;20026;-75
2023/02/10 04:58:34;;;;;;;1999.90;999.90;;;;;;;-6.73;100.00;99796.97;5009886;28;20030;-75
2023/02/10 05:01:00;;;;;;;1999.90;999.90;;;;;;;-6.77;100.00;99798.25;5009914;28;20029;-75
2023/02/10 05:03:25;;;;;;;1999.90;999.90;;;;;;;-6.75;100.00;99806.06;5009724;28;20510;-76
2023/02/10 05:05:53;;;;;;;1999.90;999.90;;;;;;;-6.72;100.00;99809.28;5009793;28;20052;-75
2023/02/10 05:08:22;;;;;;;1999.90;999.90;;;;;;;-6.72;100.00;99803.97;5010060;28;20037;-75
2023/02/10 05:10:48;;;;;;;1999.90;999.90;;;;;;;-6.79;100.00;99807.31;5009638;28;20474;-74
2023/02/10 05:13:13;;;;;;;1999.90;999.90;;;;;;;-6.84;100.00;99813.06;5009923;28;20478;-75
2023/02/10 05:15:39;;;;;;;1999.90;999.90;;;;;;;-6.94;100.00;99806.91;5010177;28;20026;-75
2023/02/10 05:18:04;;;;;;;1999.90;999.90;;;;;;;-6.88;100.00;99810.81;5020562;28;20079;-75
2023/02/10 05:20:30;;;;;;;1999.90;999.90;;;;;;;-6.85;100.00;99835.31;5009660;28;20018;-75
2023/02/10 05:22:55;;;;;;;1999.90;999.90;;;;;;;-6.81;100.00;99827.91;5009695;28;20030;-75
2023/02/10 05:25:20;;;;;;;1999.90;999.90;;;;;;;-6.79;100.00;99833.91;5009292;28;20108;-75
2023/02/10 05:27:46;;;;;;;1999.90;999.90;;;;;;;-6.83;100.00;99837.84;5010015;28;20117;-76
2023/02/10 05:30:12;;;;;;;1999.90;999.90;;;;;;;-6.89;100.00;99831.25;5010475;28;20528;-76
2023/02/10 05:32:39;;;;;;;1999.90;999.90;;;;;;;-6.98;100.00;99818.78;5009846;28;20030;-76
2023/02/10 05:35:05;;;;;;;1999.90;999.90;;;;;;;-7.10;100.00;99819.88;5009823;28;20041;-75
2023/02/10 05:37:30;;;;;;;1999.90;999.90;;;;;;;-7.09;100.00;99809.13;5009470;28;20398;-76
2023/02/10 05:39:56;;;;;;;1999.90;999.90;;;;;;;-7.24;100.00;99817.63;5009674;28;20108;-75
2023/02/10 05:42:21;;;;;;;1999.90;999.90;;;;;;;-7.14;100.00;99829.13;5009430;28;20041;-76
2023/02/10 05:44:46;;;;;;;1999.90;999.90;;;;;;;-7.14;100.00;99842.44;5012095;28;20097;-76
2023/02/10 05:47:12;;;;;;;1999.90;999.90;;;;;;;-7.12;100.00;99832.50;5023032;28;20417;-75
2023/02/10 05:49:37;;;;;;;1999.90;999.90;;;;;;;-7.13;100.00;99844.09;5033073;28;20064;-75
2023/02/10 05:52:02;;;;;;;1999.90;999.90;;;;;;;-6.99;100.00;99849.03;5032844;28;20022;-76
2023/02/10 05:54:28;;;;;;;1999.90;999.90;;;;;;;-6.97;100.00;99852.38;5032429;28;20393;-75
2023/02/10 05:56:54;;;;;;;1999.90;999.90;;;;;;;-6.94;100.00;99848.59;5032574;28;20029;-75
2023/02/10 05:59:19;;;;;;;1999.90;999.90;;;;;;;-6.92;100.00;99849.31;5032572;28;20033;-76
2023/02/10 06:01:44;;;;;;;1999.90;999.90;;;;;;;-6.91;100.00;99861.63;5037306;28;20120;-75
2023/02/10 06:04:10;;;;;;;1999.90;999.90;;;;;;;-6.99;100.00;99859.66;5025995;28;20021;-75
2023/02/10 06:06:36;;;;;;;1999.90;999.90;;;;;;;-6.92;100.00;99866.09;5019383;28;20034;-75
2023/02/10 06:09:01;;;;;;;1999.90;999.90;;;;;;;-6.94;100.00;99868.06;5012941;28;20076;-75
2023/02/10 06:11:27;;;;;;;1999.90;999.90;;;;;;;-7.02;100.00;99865.25;5012661;28;20030;-75
2023/02/10 06:13:52;;;;;;;1999.90;999.90;;;;;;;-6.89;100.00;99872.97;4994918;28;20112;-74
2023/02/10 06:16:17;;;;;;;1999.90;999.90;;;;;;;-6.79;100.00;99869.34;5014233;28;20022;-75
2023/02/10 06:18:44;;;;;;;1999.90;999.90;;;;;;;-6.82;100.00;99877.59;5021267;28;20036;-75
2023/02/10 06:21:09;;;;;;;1999.90;999.90;;;;;;;-6.81;100.00;99871.31;5012701;28;20076;-75
2023/02/10 06:23:34;;;;;;;1999.90;999.90;;;;;;;-6.78;100.00;99878.16;5012705;28;20030;-75
2023/02/10 06:26:01;;;;;;;1999.90;999.90;;;;;;;-6.84;100.00;99874.22;4995339;28;20026;-75
2023/02/10 06:28:27;;;;;;;1999.90;999.90;;;;;;;-6.83;100.00;99885.72;5014922;28;20418;-74
2023/02/10 06:30:53;;;;;;;1999.90;999.90;;;;;;;-6.61;100.00;99886.28;5014879;28;20053;-75
2023/02/10 06:33:18;;;;;;;1999.90;999.90;;;;;;;-6.68;100.00;99906.47;5033336;28;20060;-75
2023/02/10 06:35:45;;;;;;;1999.90;999.90;;;;;;;-6.78;100.00;99889.63;5033596;28;20022;-75
2023/02/10 06:38:10;;;;;;;1999.90;999.90;;;;;;;-6.82;100.00;99888.22;5014565;28;20084;-75
2023/02/10 06:40:36;;;;;;;1999.90;999.90;;;;;;;-6.72;100.00;99886.44;5014049;28;20479;-75
2023/02/10 06:43:01;;;;;;;1999.90;999.90;;;;;;;-6.41;100.00;99891.63;5027822;28;20053;-77
2023/02/10 06:45:27;;;;;;;1999.90;999.90;;;;;;;-6.49;100.00;99879.03;5033144;28;20410;-76
2023/02/10 06:47:53;;;;;;;1999.90;999.90;;;;;;;-6.34;100.00;99887.41;5023163;28;20029;-75
2023/02/10 06:50:21;;;;;;;1999.90;999.90;;;;;;;-6.00;100.00;99886.00;5036025;28;20026;-76
2023/02/10 06:52:47;;;;;;;1999.90;999.90;;;;;;;-5.81;100.00;99901.91;5022748;28;20878;-75
2023/02/10 06:55:16;;;;;;;1999.90;999.90;;;;;;;-5.41;100.00;99905.16;5018885;28;20066;-75
2023/02/10 06:57:41;;;;;;;1999.90;999.90;;;;;;;-5.26;100.00;99912.69;5018493;28;20034;-76
2023/02/10 07:00:10;;;;;;;1999.90;999.90;;;;;;;-5.41;100.00;99915.81;5037681;28;20068;-76
2023/02/10 07:02:36;;;;;;;1999.90;999.90;;;;;;;-5.53;100.00;99908.97;5024090;28;20029;-75
2023/02/10 07:05:05;;;;;;;1999.90;999.90;;;;;;;-5.47;100.00;99910.22;5032919;28;20034;-75
2023/02/10 07:07:30;;;;;;;1999.90;999.90;;;;;;;-5.26;100.00;99918.84;5024380;28;20068;-75
2023/02/10 07:09:56;;;;;;;1999.90;999.90;;;;;;;-5.01;100.00;99923.50;5013032;28;20108;-75
2023/02/10 07:12:21;;;;;;;1999.90;999.90;;;;;;;-4.46;100.00;99928.81;5012218;28;20364;-74
2023/02/10 07:14:47;;;;;;;1999.90;999.90;;;;;;;-3.88;100.00;99934.50;5010820;28;20029;-75
2023/02/10 07:17:12;;;;;;;1999.90;999.90;;;;;;;-3.22;100.00;99942.00;5010908;28;20382;-75
2023/02/10 07:19:37;;;;;;;1999.90;999.90;;;;;;;-3.10;100.00;99952.25;5011042;28;20026;-76
2023/02/10 07:22:06;;;;;;;1999.90;999.90;;;;;;;-3.51;100.00;99943.16;5011442;28;20060;-74
2023/02/10 07:24:32;;;;;;;1999.90;999.90;;;;;;;-3.29;100.00;99942.63;5015913;28;20030;-77
2023/02/10 07:26:57;;;;;;;1999.90;999.90;;;;;;;-3.39;100.00;99944.59;5016102;28;20040;-76
2023/02/10 07:29:22;;;;;;;1999.90;999.90;;;;;;;-3.22;100.00;99942.84;5013647;28;20026;-77
2023/02/10 07:31:48;;;;;;;1999.90;999.90;;;;;;;-2.88;100.00;99942.88;4993191;28;20032;-76
2023/02/10 07:34:13;;;;;;;1999.90;999.90;;;;;;;-2.07;100.00;99945.78;5014593;28;20033;-75
2023/02/10 07:36:39;;;;;;;1999.90;999.90;;;;;;;-1.58;100.00;99955.50;5010295;28;20053;-75
2023/02/10 07:39:04;;;;;;;1999.90;999.90;;;;;;;-1.19;100.00;99958.34;5010639;28;20041;-76
2023/02/10 07:41:29;;;;;;;1999.90;999.90;;;;;;;-0.89;100.00;99970.16;5010420;28;20048;-76
2023/02/10 07:43:55;;;;;;;1999.90;999.90;;;;;;;-0.22;98.27;99968.72;5010488;28;20075;-76
2023/02/10 07:46:20;;;;;;;1999.90;999.90;;;;;;;0.18;89.34;99963.06;5010278;28;20033;-75
2023/02/10 07:48:46;;;;;;;1999.90;999.90;;;;;;;1.11;84.58;99970.78;5010374;28;20018;-76
2023/02/10 07:51:11;;;;;;;1999.90;999.90;;;;;;;1.49;80.19;99967.00;5010018;28;20026;-76
2023/02/10 07:53:42;;;;;;;1999.90;999.90;;;;;;;1.93;80.12;99969.59;5011083;28;20037;-76
2023/02/10 07:56:08;;;;;;;1999.90;999.90;;;;;;;1.84;79.19;99977.00;5012283;28;20545;-75
2023/02/10 07:58:34;;;;;;;1999.90;999.90;;;;;;;3.46;71.40;99988.59;5009939;28;20026;-76
2023/02/10 08:00:59;;;;;;;1999.90;999.90;;;;;;;3.85;65.57;99979.84;5011638;28;20029;-75
2023/02/10 08:03:24;;;;;;;1999.90;999.90;;;;;;;3.99;63.20;99984.28;5011687;28;20100;-75
2023/02/10 08:05:50;;;;;;;1999.90;999.90;;;;;;;2.87;67.92;99979.25;5013021;28;20386;-76
2023/02/10 08:08:15;;;;;;;1999.90;999.90;;;;;;;3.19;66.36;99973.25;5014599;28;20588;-75
2023/02/10 08:10:41;;;;;;;1999.90;999.90;;;;;;;4.08;63.92;99985.75;5002757;28;20052;-75
2023/02/10 08:13:08;;;;;;;1999.90;999.90;;;;;;;4.90;58.93;99990.91;5024119;28;20037;-75
2023/02/10 08:15:33;;;;;;;1999.90;999.90;;;;;;;5.06;58.34;99989.63;5015050;28;20520;-75
2023/02/10 08:18:00;;;;;;;1999.90;999.90;;;;;;;5.76;54.88;100002.47;5009515;28;20038;-75
2023/02/10 08:20:25;;;;;;;1999.90;999.90;;;;;;;5.43;55.40;100001.69;5009364;28;20030;-76
2023/02/10 08:22:59;;;;;;;1999.90;999.90;;;;;;;5.45;54.84;100010.47;5009866;28;20030;-75
2023/02/10 08:25:25;;;;;;;1999.90;999.90;;;;;;;5.08;55.98;100015.50;5009499;28;20053;-74
2023/02/10 08:27:51;;;;;;;1999.90;999.90;;;;;;;5.85;54.08;100006.59;5010282;28;20057;-75
2023/02/10 08:30:17;;;;;;;1999.90;999.90;;;;;;;5.28;55.96;100000.06;5010231;28;20463;-76
2023/02/10 08:32:43;;;;;;;1999.90;999.90;;;;;;;6.19;53.46;100000.84;5010856;28;20018;-75
2023/02/10 08:35:08;;;;;;;1999.90;999.90;;;;;;;6.97;49.20;100002.22;5010881;28;20540;-74
2023/02/10 08:37:34;;;;;;;1999.90;999.90;;;;;;;6.56;49.92;100006.50;5010691;28;20089;-74
2023/02/10 08:39:59;;;;;;;1999.90;999.90;;;;;;;6.61;48.90;100006.69;5011490;28;20115;-75
2023/02/10 08:42:25;;;;;;;1999.90;999.90;;;;;;;5.98;50.57;100011.19;5011034;28;20512;-75
2023/02/10 08:44:51;;;;;;;1999.90;999.90;;;;;;;6.92;49.73;100003.94;5011808;28;20360;-80
2023/02/10 08:47:16;;;;;;;1999.90;999.90;;;;;;;6.60;48.37;100011.28;5012603;28;20119;-74
2023/02/10 08:49:42;;;;;;;1999.90;999.90;;;;;;;6.81;49.21;100007.38;5010694;28;20069;-75
2023/02/10 08:52:08;;;;;;;1999.90;999.90;;;;;;;6.39;50.04;100009.72;5010681;28;20109;-76
2023/02/10 08:54:33;;;;;;;1999.90;999.90;;;;;;;6.58;49.16;100012.56;5010930;28;20048;-74
2023/02/10 08:56:59;;;;;;;1999.90;999.90;;;;;;;6.56;50.46;100020.09;5011456;28;20386;-75
2023/02/10 08:59:25;;;;;;;1999.90;999.90;;;;;;;7.07;48.14;100018.06;5012754;28;20048;-76
2023/02/10 09:01:51;;;;;;;1999.90;999.90;;;;;;;7.31;46.78;100019.94;5010935;28;20037;-76
2023/02/10 09:04:17;;;;;;;1999.90;999.90;;;;;;;7.41;44.86;100016.72;5010722;28;20022;-75
2023/02/10 09:06:43;;;;;;;1999.90;999.90;;;;;;;6.52;47.05;100010.69;5011475;28;20038;-75
2023/02/10 09:09:14;;;;;;;1999.90;999.90;;;;;;;6.79;47.21;100009.47;5011057;28;20022;-75
2023/02/10 09:11:40;;;;;;;1999.90;999.90;;;;;;;7.92;44.40;100013.66;4993840;28;20461;-75
2023/02/10 09:14:06;;;;;;;1999.90;999.90;;;;;;;7.70;43.65;100010.56;5010707;28;20040;-75
2023/02/10 09:16:32;;;;;;;1999.90;999.90;;;;;;;7.49;43.26;100011.78;5010585;28;20018;-75
2023/02/10 09:18:57;;;;;;;1999.90;999.90;;;;;;;6.86;45.01;100010.28;5010553;28;20041;-75
2023/02/10 09:21:24;;;;;;;1999.90;999.90;;;;;;;6.30;46.53;100004.75;5012577;28;20022;-73
2023/02/10 09:23:49;;;;;;;1999.90;999.90;;;;;;;7.04;45.05;100010.34;5014178;28;20054;-75
2023/02/10 09:26:15;;;;;;;1999.90;999.90;;;;;;;7.64;43.90;100013.34;5014351;28;20464;-75
2023/02/10 09:28:40;;;;;;;1999.90;999.90;;;;;;;7.71;43.36;100008.63;5014461;28;20093;-76
2023/02/10 09:31:10;;;;;;;1999.90;999.90;;;;;;;7.00;45.98;100003.66;5014480;28;20030;-75
2023/02/10 09:33:35;;;;;;;1999.90;999.90;;;;;;;6.81;45.34;100023.69;5014396;28;20041;-75
2023/02/10 09:36:06;;;;;;;1999.90;999.90;;;;;;;6.44;45.98;100012.63;5014712;28;20026;-74
2023/02/10 09:38:33;;;;;;;1999.90;999.90;;;;;;;7.13;45.77;100000.84;5014277;28;20049;-77
2023/02/10 09:41:16;;;;;;;1999.90;999.90;;;;;;;7.42;45.12;100021.09;5015038;28;20533;-75
2023/02/10 09:44:00;;;;;;;1999.90;999.90;;;;;;;8.67;42.00;100015.00;4996475;28;20034;-75
2023/02/10 09:46:44;;;;;;;1999.90;999.90;;;;;;;7.87;43.01;100014.31;5014227;28;20026;-76
2023/02/10 09:49:33;;;;;;;1999.90;999.90;;;;;;;7.69;43.94;100027.09;5014071;28;20034;-75
2023/02/10 09:52:20;;;;;;;1999.90;999.90;;;;;;;7.80;43.89;100029.91;5014314;28;20474;-74
2023/02/10 09:54:46;;;;;;;1999.90;999.90;;;;;;;7.95;43.67;100027.66;4997167;28;20029;-75
2023/02/10 09:57:32;;;;;;;1999.90;999.90;;;;;;;8.57;43.06;100037.38;5013661;28;20032;-76
2023/02/10 09:59:58;;;;;;;1999.90;999.90;;;;;;;8.21;43.15;100039.28;5013850;28;20034;-75
2023/02/10 10:02:33;;;;;;;1999.90;999.90;;;;;;;8.17;42.77;100032.66;5013504;28;20069;-74
2023/02/10 10:05:05;;;;;;;1999.90;999.90;;;;;;;8.42;42.10;100044.31;4995969;28;20398;-77
2023/02/10 10:07:35;;;;;;;1999.90;999.90;;;;;;;8.13;42.79;100040.44;5013325;28;20044;-75
2023/02/10 10:10:13;;;;;;;1999.90;999.90;;;;;;;9.37;39.93;100034.25;5013760;28;20044;-76
2023/02/10 10:12:39;;;;;;;1999.90;999.90;;;;;;;9.34;40.17;100016.44;5014562;28;20033;-75
2023/02/10 10:15:14;;;;;;;1999.90;999.90;;;;;;;9.08;40.28;100031.34;5014034;28;20026;-76
2023/02/10 10:18:09;;;;;;;1999.90;999.90;;;;;;;9.09;39.48;100034.91;4995899;28;20036;-76
2023/02/10 10:20:53;;;;;;;1999.90;999.90;;;;;;;7.53;42.64;100023.91;5013475;28;20037;-75
2023/02/10 10:23:23;;;;;;;1999.90;999.90;;;;;;;7.70;42.86;100034.22;5013163;28;20025;-75
2023/02/10 10:26:07;;;;;;;1999.90;999.90;;;;;;;7.67;42.49;100023.78;5013098;28;20103;-75
2023/02/10 10:29:14;;;;;;;1999.90;999.90;;;;;;;9.01;39.63;100027.91;4995348;28;20486;-75
2023/02/10 10:31:44;;;;;;;1999.90;999.90;;;;;;;8.38;40.97;100033.03;4994462;28;20036;-75
2023/02/10 10:34:18;;;;;;;1999.90;999.90;;;;;;;9.34;38.99;100021.91;4995607;28;20034;-75
2023/02/10 10:36:46;;;;;;;1999.90;999.90;;;;;;;9.87;37.57;100016.28;4995282;28;20032;-75
2023/02/10 10:39:45;;;;;;;1999.90;999.90;;;;;;;9.32;37.21;100007.66;4994462;28;20052;-75
2023/02/10 10:42:40;;;;;;;1999.90;999.90;;;;;;;9.17;37.44;99998.25;4994496;28;20022;-76
2023/02/10 10:45:15;;;;;;;1999.90;999.90;;;;;;;8.13;40.48;99996.84;5011520;28;20057;-76
2023/02/10 10:47:54;;;;;;;1999.90;999.90;;;;;;;9.57;38.04;99991.88;4994125;28;20065;-76
2023/02/10 10:50:23;;;;;;;1999.90;999.90;;;;;;;9.38;37.94;100000.41;5011683;28;20041;-76
2023/02/10 10:52:53;;;;;;;1999.90;999.90;;;;;;;9.39;36.78;99991.16;4994944;28;20046;-77
2023/02/10 10:55:26;;;;;;;1999.90;999.90;;;;;;;9.38;36.88;99979.41;5012326;28;20470;-77